CYLU

Kangiqsualujjuaq (Georges River) Airport

Kangiqsualujjuaq, Quebec, Canada
METAR CYLU 211700Z 28006KT 12SM -SN BKN008 OVC019 M06/M08 A3027 RMK ST5SC3 LAST STFD OBS/NEXT 221200UTC SLP258
Observed Flight Rules
Apr-21 @ 17:00 UTC (14 hours ago) Instrument Flight Rules
Wind Visibility Clouds Conditions
280° at 6 knots 12 miles
  • Broken at 800' AGL
  • Overcast at 1,900' AGL
  • Light Snow
Temperatures Readings
Current -6°C / 21°F
Dewpoint -8°C / 18°F
Humidity 86%
Altimeter 30.27" Hg
Pressure 1025.8 hPa
Elevation 60
METAR CYLU 211700Z 28006KT 12SM -SN BKN008 OVC019 M06/M08 A3027 RMK ST5SC3 LAST STFD OBS/NEXT 221200UTC SLP258
Observed Flight Rules
Apr-21 @ 17:00 UTC
(14 hours ago)
IFR
Wind Visibility
280° at 6 knots 12 miles
Clouds
  • Broken at 800' AGL
  • Overcast at 1,900' AGL
Conditions
  • Light Snow
Temperature Dewpoint
-6°C / 21°F -8°C / 18°F
Humidity Altimeter Pressure
86% 30.27" Hg 1025.8 hPa